Time;durP1;ratioP1;P1;durP2;ratioP2;P2;SDS_P1;SDS_P2;PMS_P1;PMS_P2;Temp;Humidity;BMP_temperature;BMP_pressure;BME280_temperature;BME280_humidity;BME280_pressure;Samples;Min_cycle;Max_cycle;Signal;HPM_P1;HPM_P2
2022/02/13 06:53:51;;;;;;;89.67;37.60;;;51.50;2227.20;;;;;;5226728;23;20056;-85
2022/02/13 06:56:43;;;;;;;85.20;38.40;;;51.50;2227.20;;;;;;4937677;29;20053;-85
2022/02/13 06:59:23;;;;;;;54.83;29.20;;;51.60;2227.20;;;;;;4922334;29;20040;-85
2022/02/13 07:01:59;;;;;;;62.80;33.00;;;51.60;2227.20;;;;;;4908232;29;20032;-85
2022/02/13 07:04:26;;;;;;;67.07;37.90;;;51.70;2227.20;;;;;;4945297;29;20008;-85
2022/02/13 07:07:22;;;;;;;100.07;46.47;;;51.80;2227.20;;;;;;4955979;29;20104;-89
2022/02/13 07:10:31;;;;;;;81.67;43.23;;;;;;;;;;4912953;29;20027;-87
2022/02/13 07:13:57;;;;;;;136.47;64.37;;;52.10;2227.20;;;;;;4884904;29;20022;-87
2022/02/13 07:16:29;;;;;;;157.30;74.85;;;;;;;;;;4884424;29;20049;-84
2022/02/13 07:24:14;;;;;;;78.67;44.10;;;77.00;2227.20;;;;;;4941584;28;20047;-86
2022/02/13 07:26:42;;;;;;;69.90;37.17;;;76.90;2227.20;;;;;;4940096;29;20040;-84
2022/02/13 08:59:50;;;;;;;24.00;12.73;;;205.20;1920.00;;;;;;4935405;29;20059;-87
2022/02/13 09:02:16;;;;;;;17.70;11.68;;;205.20;1920.00;;;;;;4919745;29;20035;-89
2022/02/13 09:04:42;;;;;;;18.05;11.32;;;230.60;1843.20;;;;;;4919772;29;20057;-91
2022/02/13 09:07:07;;;;;;;25.70;13.32;;;205.50;1868.80;;;;;;4927549;29;20095;-92
2022/02/13 09:09:33;;;;;;;16.40;11.23;;;205.10;1920.00;;;;;;4921235;29;20123;-90
2022/02/13 09:11:59;;;;;;;19.38;11.27;;;205.70;1868.80;;;;;;4931769;29;20032;-87
2022/02/13 09:14:25;;;;;;;15.25;9.25;;;282.30;1664.00;;;;;;4955947;29;20070;-85
2022/02/13 09:16:51;;;;;;;123.53;15.38;;;333.50;1459.20;;;;;;4938657;29;20464;-87
2022/02/13 09:19:19;;;;;;;18.80;10.48;;;384.20;1305.60;;;;;;4938430;29;20464;-85
2022/02/13 09:21:45;;;;;;;16.10;10.05;;;410.10;1203.20;;;;;;4930192;29;20024;-84
2022/02/13 09:24:11;;;;;;;11.98;8.05;;;435.70;1100.80;;;;;;4908079;29;20084;-86
2022/02/13 09:26:37;;;;;;;16.75;8.98;;;461.20;1075.20;;;;;;4929181;29;20055;-85
2022/02/13 09:29:03;;;;;;;22.08;8.80;;;461.70;1049.60;;;;;;4919751;29;20035;-85
2022/02/13 09:31:29;;;;;;;15.00;8.45;;;487.10;998.40;;;;;;4918915;29;20028;-89
2022/02/13 09:33:55;;;;;;;15.60;9.43;;;512.00;947.20;;;;;;4935841;29;20031;-87
2022/02/13 09:36:21;;;;;;;13.82;9.25;;;512.30;1152.00;;;;;;4919519;29;20485;-92
2022/02/13 09:38:48;;;;;;;32.22;8.88;;;512.80;1126.40;;;;;;4936305;29;20114;-87
2022/02/13 09:41:21;;;;;;;9.85;6.68;;;537.90;921.60;;;;;;4936319;29;20024;-86
2022/02/13 09:43:47;;;;;;;12.98;8.85;;;537.90;870.40;;;;;;4918529;29;20054;-91
2022/02/13 09:46:15;;;;;;;15.05;9.07;;;563.40;896.00;;;;;;4936347;29;20063;-90
2022/02/13 09:48:42;;;;;;;11.00;8.68;;;563.80;819.20;;;;;;4919212;29;20039;-91
2022/02/13 09:51:10;;;;;;;14.27;8.25;;;589.30;819.20;;;;;;4919240;29;20020;-89
2022/02/13 09:53:36;;;;;;;14.10;9.10;;;614.60;768.00;;;;;;4936250;29;20024;-88
2022/02/13 09:56:04;;;;;;;12.07;7.03;;;614.50;768.00;;;;;;4919036;29;20099;-88
2022/02/13 09:58:30;;;;;;;10.70;7.38;;;614.60;716.80;;;;;;4919304;29;20102;-87
2022/02/13 10:01:04;;;;;;;11.25;7.75;;;589.50;768.00;;;;;;4918650;29;20023;-86
2022/02/13 10:03:31;;;;;;;13.75;8.95;;;615.00;742.40;;;;;;4919239;29;20485;-83
2022/02/13 10:06:02;;;;;;;12.40;6.90;;;615.30;742.40;;;;;;4919088;29;20060;-82
2022/02/13 10:08:45;;;;;;;12.98;8.32;;;640.20;716.80;;;;;;4919131;29;20036;-86
2022/02/13 10:11:29;;;;;;;15.50;11.32;;;640.80;691.20;;;;;;4918863;29;20084;-83
2022/02/13 10:14:04;;;;;;;11.18;7.20;;;615.20;742.40;;;;;;4935802;29;20438;-87
2022/02/13 10:16:40;;;;;;;11.35;7.72;;;640.00;742.40;;;;;;4919258;29;20038;-88
2022/02/13 10:19:12;;;;;;;13.43;8.40;;;640.30;716.80;;;;;;4919060;29;20079;-83
2022/02/13 10:21:44;;;;;;;17.05;8.48;;;614.60;716.80;;;;;;4918782;29;20095;-84
2022/02/13 10:24:16;;;;;;;17.20;9.63;;;589.30;768.00;;;;;;4918730;29;20106;-83
2022/02/13 10:26:44;;;;;;;12.82;7.05;;;589.60;716.80;;;;;;4919067;29;20028;-84
2022/02/13 10:29:11;;;;;;;24.38;14.68;;;614.60;716.80;;;;;;4919116;29;20028;-85
2022/02/13 10:31:41;;;;;;;14.65;9.68;;;588.80;768.00;;;;;;4936069;29;20027;-86
2022/02/13 10:34:07;;;;;;;14.70;11.23;;;589.00;768.00;;;;;;4919176;29;20024;-89
2022/02/13 10:36:44;;;;;;;12.75;8.30;;;564.10;768.00;;;;;;4918745;29;20039;-82
2022/02/13 10:39:17;;;;;;;13.80;8.13;;;614.60;716.80;;;;;;4918959;29;20028;-82
2022/02/13 10:41:43;;;;;;;15.52;9.52;;;614.40;716.80;;;;;;4935953;29;20059;-84
2022/02/13 10:44:09;;;;;;;16.33;11.32;;;614.50;716.80;;;;;;4937387;29;20063;-83
2022/02/13 10:46:38;;;;;;;23.30;11.65;;;614.50;716.80;;;;;;4922590;29;20027;-89
2022/02/13 10:49:05;;;;;;;15.48;10.20;;;589.70;716.80;;;;;;4907316;29;20567;-86
2022/02/13 10:51:32;;;;;;;14.00;9.82;;;589.20;742.40;;;;;;4922054;29;20119;-77
2022/02/13 10:53:59;;;;;;;17.17;8.63;;;640.00;742.40;;;;;;4922146;29;20023;-84
2022/02/13 10:56:25;;;;;;;19.27;12.32;;;589.60;716.80;;;;;;4939529;29;20020;-91
2022/02/13 10:58:55;;;;;;;15.32;10.25;;;589.60;742.40;;;;;;4922434;29;20048;-94
2022/02/13 11:01:23;;;;;;;17.58;11.43;;;563.70;793.60;;;;;;4917339;29;20132;-84
2022/02/13 11:03:51;;;;;;;21.38;10.70;;;537.80;819.20;;;;;;4915883;29;20028;-93
2022/02/13 11:06:17;;;;;;;15.35;9.90;;;538.30;793.60;;;;;;4919702;29;20102;-85
2022/02/13 11:08:56;;;;;;;22.27;12.88;;;537.60;844.80;;;;;;4916034;29;20385;-88
2022/02/13 11:11:22;;;;;;;17.83;12.43;;;537.90;844.80;;;;;;4912164;29;20052;-93
2022/02/13 11:13:49;;;;;;;15.20;9.70;;;563.30;844.80;;;;;;4918317;29;20024;-90
2022/02/13 11:16:28;;;;;;;15.85;10.00;;;537.80;844.80;;;;;;4903272;29;20036;-88
2022/02/13 11:19:07;;;;;;;19.38;10.70;;;487.30;870.40;;;;;;4919083;29;20062;-88
2022/02/13 11:21:34;;;;;;;26.70;17.17;;;461.60;921.60;;;;;;4922247;29;20032;-89
2022/02/13 11:24:02;;;;;;;22.13;13.73;;;461.50;947.20;;;;;;4915051;29;20035;-88
2022/02/13 11:26:39;;;;;;;21.67;13.40;;;487.20;870.40;;;;;;4912444;29;20034;-87
2022/02/13 11:29:06;;;;;;;22.35;11.73;;;486.60;921.60;;;;;;4911815;29;20507;-88
2022/02/13 11:31:50;;;;;;;17.40;10.38;;;461.00;972.80;;;;;;4910211;29;20017;-88
2022/02/13 11:34:22;;;;;;;16.45;10.90;;;;;;;;;;4910730;29;20028;-90
2022/02/13 11:36:51;;;;;;;18.15;10.68;;;410.40;1049.60;;;;;;4910077;29;20036;-91
2022/02/13 11:39:37;;;;;;;25.30;15.60;;;410.20;1075.20;;;;;;4910551;29;20035;-87
2022/02/13 11:42:11;;;;;;;22.38;11.65;;;384.80;1075.20;;;;;;4909738;29;20020;-88
2022/02/13 11:44:39;;;;;;;15.30;10.40;;;384.20;1126.40;;;;;;4910546;29;20032;-89
2022/02/13 11:47:10;;;;;;;18.10;10.90;;;384.00;1152.00;;;;;;4912552;29;20062;-88
2022/02/13 11:50:03;;;;;;;19.50;10.48;;;384.10;1152.00;;;;;;4910183;29;20062;-87
2022/02/13 11:52:32;;;;;;;29.27;17.30;;;358.90;1152.00;;;;;;4907090;29;20028;-89
2022/02/13 11:54:59;;;;;;;14.45;10.27;;;359.10;1152.00;;;;;;4902250;29;20024;-88
2022/02/13 11:57:29;;;;;;;15.05;9.88;;;359.20;1152.00;;;;;;4902155;29;20032;-88
2022/02/13 11:59:55;;;;;;;12.52;8.88;;;384.00;1152.00;;;;;;4902543;29;20040;-89
2022/02/13 12:02:30;;;;;;;25.17;14.95;;;359.30;1152.00;;;;;;4902350;29;20035;-90
2022/02/13 12:05:11;;;;;;;19.05;12.05;;;359.10;1177.60;;;;;;4902350;29;20060;-90
2022/02/13 12:07:45;;;;;;;14.50;10.20;;;358.90;1177.60;;;;;;4902068;29;20039;-89
2022/02/13 12:10:25;;;;;;;14.65;9.00;;;359.10;1152.00;;;;;;4902275;29;20126;-88
2022/02/13 12:13:03;;;;;;;16.27;10.98;;;359.20;1152.00;;;;;;4902420;29;20055;-88
2022/02/13 12:15:29;;;;;;;14.57;9.65;;;384.00;1152.00;;;;;;4902276;29;20103;-88
2022/02/13 12:18:14;;;;;;;20.58;10.75;;;384.10;1126.40;;;;;;4902151;29;20485;-87
2022/02/13 12:20:41;;;;;;;13.15;9.27;;;384.20;1126.40;;;;;;4902270;29;20039;-87
2022/02/13 12:23:13;;;;;;;15.25;10.30;;;384.40;1126.40;;;;;;4901937;29;20032;-88
2022/02/13 12:25:42;;;;;;;15.95;10.10;;;410.10;1100.80;;;;;;4902108;29;20150;-87
2022/02/13 12:28:11;;;;;;;13.82;9.60;;;410.00;1075.20;;;;;;4901943;29;20059;-87
2022/02/13 12:30:45;;;;;;;15.93;9.90;;;486.60;947.20;;;;;;4901977;29;20036;-88
2022/02/13 12:33:12;;;;;;;13.30;9.05;;;564.00;819.20;;;;;;4901779;29;20402;-87
2022/02/13 12:35:38;;;;;;;15.05;9.32;;;640.90;716.80;;;;;;4901787;29;20040;-86
2022/02/13 12:38:04;;;;;;;33.05;20.48;;;666.20;691.20;;;;;;4901618;29;20105;-86
2022/02/13 12:40:31;;;;;;;19.33;12.68;;;691.20;691.20;;;;;;4901300;29;20039;-86
2022/02/13 12:43:17;;;;;;;18.85;11.85;;;640.20;691.20;;;;;;4915108;29;20032;-89
2022/02/13 12:45:45;;;;;;;44.47;29.75;;;589.10;742.40;;;;;;4920392;29;20027;-90
2022/02/13 12:48:16;;;;;;;16.45;10.23;;;615.30;742.40;;;;;;4920606;29;20140;-89
2022/02/13 12:50:45;;;;;;;44.30;34.60;;;665.70;691.20;;;;;;4937539;29;20024;-91
2022/02/13 12:53:15;;;;;;;22.75;15.27;;;640.10;716.80;;;;;;4920726;29;20183;-92
2022/02/13 12:55:42;;;;;;;30.05;19.63;;;563.90;793.60;;;;;;4920831;29;20027;-94
2022/02/13 12:58:09;;;;;;;20.55;13.05;;;538.00;819.20;;;;;;4920667;29;20058;-94
2022/02/13 13:00:49;;;;;;;14.82;9.57;;;538.00;819.20;;;;;;4920888;29;20087;-92
2022/02/13 13:03:19;;;;;;;34.67;20.38;;;588.90;768.00;;;;;;4920592;29;20087;-88
2022/02/13 13:05:50;;;;;;;33.25;21.15;;;538.30;793.60;;;;;;4920364;29;20059;-89
2022/02/13 13:08:17;;;;;;;36.03;22.05;;;512.80;819.20;;;;;;4919197;29;20031;-92
2022/02/13 13:10:53;;;;;;;30.02;19.30;;;589.30;768.00;;;;;;4920143;29;20396;-88
2022/02/13 13:13:26;;;;;;;73.88;43.53;;;589.20;768.00;;;;;;4919495;29;20126;-89
2022/02/13 13:16:08;;;;;;;28.15;17.23;;;614.90;742.40;;;;;;4908670;29;20039;-88
2022/02/13 13:18:41;;;;;;;44.33;27.48;;;589.10;768.00;;;;;;4913165;29;20040;-89
2022/02/13 13:21:13;;;;;;;;;;;589.20;768.00;;;;;;4920154;29;20499;-89
2022/02/13 13:24:23;;;;;;;12.82;8.93;;;640.30;742.40;;;;;;4919946;29;19911;-90
2022/02/13 13:26:48;;;;;;;25.63;17.27;;;742.50;640.00;;;;;;4916741;29;20122;-89
2022/02/13 13:29:26;;;;;;;95.05;57.50;;;793.60;588.80;;;;;;4920808;29;20047;-93
2022/02/13 13:32:01;;;;;;;55.75;38.08;;;819.70;563.20;;;;;;4920072;29;20080;-93
2022/02/13 13:34:28;;;;;;;92.72;60.90;;;743.00;614.40;;;;;;4919753;29;20023;-93
2022/02/13 13:36:55;;;;;;;19.08;12.85;;;844.80;563.20;;;;;;4919830;29;20114;-92
2022/02/13 13:39:26;;;;;;;16.67;12.77;;;871.20;486.40;;;;;;4919927;29;20107;-93
2022/02/13 13:41:52;;;;;;;19.95;13.45;;;921.80;486.40;;;;;;4919990;29;20477;-91
2022/02/13 13:44:21;;;;;;;32.70;22.88;;;947.50;435.20;;;;;;4920054;29;20079;-91
2022/02/13 13:46:48;;;;;;;17.70;12.15;;;870.90;486.40;;;;;;4919867;29;20023;-94
2022/02/13 13:49:14;;;;;;;20.33;14.88;;;819.70;512.00;;;;;;4919944;29;20074;-90
2022/02/13 13:51:41;;;;;;;17.30;12.68;;;896.00;460.80;;;;;;4920198;29;20087;-92
2022/02/13 13:54:06;;;;;;;21.02;14.68;;;870.90;460.80;;;;;;4919632;29;20040;-90
2022/02/13 13:56:32;;;;;;;18.65;11.20;;;921.80;460.80;;;;;;4919652;29;20152;-90
2022/02/13 13:58:58;;;;;;;20.08;14.45;;;896.20;460.80;;;;;;4919414;29;20520;-89
2022/02/13 14:01:24;;;;;;;34.95;28.00;;;896.00;460.80;;;;;;4919646;29;20024;-91
2022/02/13 14:03:50;;;;;;;47.15;34.25;;;922.00;460.80;;;;;;4919513;29;20043;-90
2022/02/13 14:06:18;;;;;;;21.15;15.55;;;922.50;435.20;;;;;;4919606;29;20024;-89
2022/02/13 14:08:44;;;;;;;21.10;16.13;;;947.20;435.20;;;;;;4919524;29;20080;-91
2022/02/13 14:11:10;;;;;;;15.00;11.05;;;922.50;435.20;;;;;;4919585;29;20446;-91
2022/02/13 14:13:36;;;;;;;28.35;20.58;;;896.00;435.20;;;;;;4919460;29;20023;-91
2022/02/13 14:16:03;;;;;;;23.45;19.02;;;845.30;486.40;;;;;;4919603;29;20042;-91
2022/02/13 14:18:28;;;;;;;25.13;21.92;;;871.20;460.80;;;;;;4920121;29;20036;-90
2022/02/13 14:20:54;;;;;;;24.20;19.23;;;896.50;435.20;;;;;;4923307;29;20031;-88
2022/02/13 14:23:20;;;;;;;27.13;22.10;;;896.20;435.20;;;;;;4923131;29;20056;-92
2022/02/13 14:25:46;;;;;;;23.02;18.02;;;896.50;435.20;;;;;;4930391;29;20079;-93
2022/02/13 14:28:14;;;;;;;20.77;12.95;;;896.00;435.20;;;;;;4942171;29;20027;-92
2022/02/13 14:30:40;;;;;;;22.23;17.73;;;871.30;435.20;;;;;;4942047;29;20023;-89
2022/02/13 14:33:06;;;;;;;19.90;16.50;;;768.70;537.60;;;;;;4942042;29;20027;-90
2022/02/13 14:35:33;;;;;;;18.52;13.70;;;;;;;;;;4941822;29;20103;-90
2022/02/13 14:37:59;;;;;;;15.63;10.85;;;589.30;742.40;;;;;;4941731;29;20070;-94
2022/02/13 14:40:25;;;;;;;16.98;12.80;;;;;;;;;;4942245;29;20024;-91
2022/02/13 14:42:51;;;;;;;15.15;11.57;;;512.50;768.00;;;;;;4942960;29;20031;-95
2022/02/13 14:45:17;;;;;;;13.43;9.95;;;;;;;;;;4942423;29;20027;-90
2022/02/13 14:47:44;;;;;;;18.42;13.15;;;;;;;;;;4941895;29;20023;-90
2022/02/13 14:50:10;;;;;;;17.73;11.88;;;460.90;896.00;;;;;;4941876;29;20024;-89
2022/02/13 14:52:36;;;;;;;24.60;17.08;;;435.80;921.60;;;;;;4941731;29;20488;-90
2022/02/13 14:55:02;;;;;;;29.30;20.23;;;435.50;972.80;;;;;;4941420;29;20059;-90
2022/02/13 14:57:28;;;;;;;49.72;27.58;;;435.20;972.80;;;;;;4941292;29;20031;-91
2022/02/13 14:59:54;;;;;;;41.15;24.75;;;410.20;1024.00;;;;;;4941433;29;20032;-90
2022/02/13 15:02:21;;;;;;;44.92;27.10;;;409.90;1049.60;;;;;;4941591;29;20023;-90
2022/02/13 15:04:47;;;;;;;29.70;21.25;;;384.90;1049.60;;;;;;4941284;29;20122;-91
2022/02/13 15:07:13;;;;;;;30.05;14.77;;;384.50;1075.20;;;;;;4941392;29;20536;-90
2022/02/13 15:09:38;;;;;;;25.05;14.70;;;384.30;1075.20;;;;;;4941369;29;20023;-88
2022/02/13 15:12:05;;;;;;;22.55;14.70;;;;;;;;;;4941251;29;20034;-87
2022/02/13 15:14:31;;;;;;;30.38;18.58;;;359.10;1100.80;;;;;;4941465;29;20028;-96
2022/02/13 15:16:57;;;;;;;49.97;29.92;;;358.90;1100.80;;;;;;4941025;29;20032;-96
2022/02/13 15:19:27;;;;;;;45.30;26.80;;;333.70;1152.00;;;;;;4941093;29;20027;-92
2022/02/13 15:21:53;;;;;;;38.88;23.80;;;358.50;1177.60;;;;;;4941342;29;20028;-93
2022/02/13 15:24:20;;;;;;;35.60;23.02;;;333.70;1177.60;;;;;;4941155;29;20106;-91
2022/02/13 15:26:46;;;;;;;28.75;16.80;;;333.50;1203.20;;;;;;4941092;29;20027;-88
2022/02/13 15:29:12;;;;;;;32.03;21.35;;;333.30;1203.20;;;;;;4940961;29;20059;-93
2022/02/13 15:31:38;;;;;;;39.55;25.45;;;333.10;1228.80;;;;;;4940123;29;20369;-94
2022/02/13 15:34:04;;;;;;;61.88;33.42;;;;;;;;;;4941000;29;20082;-90
2022/02/13 15:36:30;;;;;;;44.45;27.70;;;333.00;1254.40;;;;;;4940687;29;20059;-90
2022/02/13 15:38:56;;;;;;;40.70;26.65;;;332.80;1280.00;;;;;;4940952;29;20077;-91
2022/02/13 15:41:23;;;;;;;40.03;26.52;;;307.90;1254.40;;;;;;4940601;29;20023;-90
2022/02/13 15:43:50;;;;;;;54.22;32.10;;;307.80;1254.40;;;;;;4940761;29;20023;-91
2022/02/13 15:46:16;;;;;;;43.83;28.20;;;307.60;1305.60;;;;;;4940683;29;20384;-91
2022/02/13 15:48:42;;;;;;;65.65;38.03;;;;;;;;;;4940799;29;20024;-90
2022/02/13 15:51:08;;;;;;;61.40;36.95;;;;;;;;;;4940732;29;20082;-91
2022/02/13 15:53:34;;;;;;;59.55;35.50;;;;;;;;;;4940640;29;20540;-90
2022/02/13 15:56:01;;;;;;;54.53;33.20;;;;;;;;;;4940343;29;20035;-91
2022/02/13 15:58:27;;;;;;;44.17;28.35;;;;;;;;;;4940283;29;20054;-91
2022/02/13 16:00:53;;;;;;;46.20;29.05;;;;;;;;;;4940468;29;20023;-91
2022/02/13 16:03:19;;;;;;;51.42;32.28;;;;;;;;;;4940488;29;20050;-87
2022/02/13 16:05:45;;;;;;;43.85;27.75;;;;;;;;;;4940780;29;20121;-90
2022/02/13 16:08:11;;;;;;;48.92;30.95;;;;;;;;;;4940523;29;20028;-95
2022/02/13 16:10:37;;;;;;;56.88;34.40;;;;;;;;;;4940859;29;20053;-90
2022/02/13 16:13:04;;;;;;;67.70;43.80;;;;;;;;;;4940395;29;20026;-91
2022/02/13 16:15:30;;;;;;;78.55;49.72;;;;;;;;;;4942122;29;20032;-95
2022/02/13 16:17:56;;;;;;;69.25;46.80;;;281.70;1356.80;;;;;;4943791;29;20046;-92
2022/02/13 16:20:23;;;;;;;83.95;49.95;;;;;;;;;;4942973;29;20107;-90
2022/02/13 16:22:49;;;;;;;109.15;62.58;;;256.70;1356.80;;;;;;4941077;29;20027;-90
2022/02/13 16:25:15;;;;;;;113.10;62.80;;;256.60;1382.40;;;;;;4940193;29;20114;-91
2022/02/13 16:27:41;;;;;;;95.72;56.70;;;256.40;1408.00;;;;;;4942038;29;20107;-92
2022/02/13 16:30:07;;;;;;;152.90;68.03;;;256.30;1433.60;;;;;;4940447;29;20027;-94
2022/02/13 16:32:33;;;;;;;208.23;83.97;;;;;;;;;;4940467;29;20086;-96
2022/02/13 16:35:18;;;;;;;230.98;94.18;;;;;;;;;;4947408;29;20011;-96
2022/02/13 16:38:02;;;;;;;134.50;57.95;;;;;;;;;;4966058;29;20500;-91
2022/02/13 16:40:28;;;;;;;169.45;67.60;;;;;;;;;;4944740;29;20039;-96
2022/02/13 16:42:55;;;;;;;297.45;111.05;;;;;;;;;;4940737;29;20023;-94
2022/02/13 16:45:21;;;;;;;143.43;60.03;;;;;;;;;;4941057;29;20027;-93
2022/02/13 16:47:48;;;;;;;70.82;38.10;;;;;;;;;;4946406;29;20082;-96
2022/02/13 16:50:14;;;;;;;167.52;74.18;;;;;;;;;;4951348;29;20047;-96
2022/02/13 16:52:41;;;;;;;82.57;40.05;;;231.10;1484.80;;;;;;4955336;29;20031;-95
2022/02/13 16:55:07;;;;;;;76.07;39.67;;;;;;;;;;4939901;29;20506;-94
2022/02/13 16:57:33;;;;;;;74.30;39.42;;;;;;;;;;4939103;29;20130;-92
2022/02/13 16:59:59;;;;;;;111.18;49.28;;;231.00;1536.00;;;;;;4939807;29;20042;-92
2022/02/13 17:02:25;;;;;;;110.72;51.13;;;230.90;1536.00;;;;;;4941486;29;20028;-91
2022/02/13 17:04:50;;;;;;;119.00;54.55;;;230.70;1561.60;;;;;;4942886;23;20052;-96
2022/02/13 17:07:16;;;;;;;130.73;53.90;;;230.60;1587.20;;;;;;4885461;29;20592;-95
2022/02/13 17:09:42;;;;;;;114.10;51.47;;;230.60;2201.60;;;;;;4868828;29;20055;-93
2022/02/13 17:12:08;;;;;;;99.43;46.50;;;230.50;1587.20;;;;;;4885897;29;20111;-94
2022/02/13 17:14:35;;;;;;;89.82;42.47;;;;;;;;;;4901562;29;20028;-93
2022/02/13 17:17:04;;;;;;;60.70;31.13;;;;;;;;;;4902111;29;20159;-91
2022/02/13 17:19:30;;;;;;;45.00;24.85;;;230.50;1612.80;;;;;;4917498;29;20020;-92
2022/02/13 17:21:56;;;;;;;40.65;22.30;;;205.70;1612.80;;;;;;4902781;29;20565;-93
2022/02/13 17:24:22;;;;;;;40.47;21.63;;;205.60;1638.40;;;;;;4902813;29;20092;-89
2022/02/13 17:26:48;;;;;;;30.48;18.50;;;205.60;1638.40;;;;;;4902985;29;20103;-91
2022/02/13 17:29:14;;;;;;;32.67;19.75;;;205.50;1638.40;;;;;;4901636;29;20051;-91
2022/02/13 17:31:40;;;;;;;32.05;18.77;;;205.50;1664.00;;;;;;4901843;29;20024;-93
2022/02/13 17:34:06;;;;;;;39.72;23.02;;;205.40;1664.00;;;;;;4901814;29;20087;-92
2022/02/13 17:36:32;;;;;;;45.78;25.63;;;205.30;1792.00;;;;;;4902022;29;20031;-93
2022/02/13 17:38:58;;;;;;;55.33;27.83;;;205.30;1689.60;;;;;;4902118;29;20024;-93
2022/02/13 17:41:25;;;;;;;64.95;35.70;;;205.20;1766.40;;;;;;4903748;29;20032;-95
2022/02/13 17:43:51;;;;;;;78.93;42.42;;;205.20;1689.60;;;;;;4920981;29;20161;-94
2022/02/13 17:46:17;;;;;;;75.15;36.50;;;205.10;1689.60;;;;;;4921309;29;20038;-91
2022/02/13 17:48:43;;;;;;;60.25;29.67;;;205.20;2252.80;;;;;;4920131;29;20122;-90
2022/02/13 17:51:09;;;;;;;62.88;34.75;;;;;;;;;;4920823;29;20143;-90
2022/02/13 17:53:35;;;;;;;50.88;26.65;;;;;;;;;;4919346;29;20033;-91
2022/02/13 17:56:02;;;;;;;45.97;25.80;;;;;;;;;;4892695;29;20028;-91
2022/02/13 17:58:28;;;;;;;95.43;51.88;;;;;;;;;;4894092;29;20056;-93
2022/02/13 18:00:55;;;;;;;52.42;30.58;;;;;;;;;;4893886;29;20033;-91
2022/02/13 18:03:21;;;;;;;79.32;40.05;;;;;;;;;;4894044;29;20028;-93
2022/02/13 18:05:47;;;;;;;49.80;23.23;;;;;;;;;;4882453;29;20045;-91
2022/02/13 18:08:13;;;;;;;30.92;18.52;;;;;;;;;;4874630;29;20040;-92
2022/02/13 18:10:39;;;;;;;41.63;22.45;;;;;;;;;;4868224;29;20474;-93
2022/02/13 18:13:05;;;;;;;45.72;26.45;;;180.10;1766.40;;;;;;4867844;29;20044;-91
2022/02/13 18:15:33;;;;;;;40.25;23.33;;;;;;;;;;4883161;29;20371;-93
2022/02/13 18:18:04;;;;;;;44.90;24.13;;;;;;;;;;4887259;29;20407;-84
2022/02/13 18:20:32;;;;;;;30.67;21.23;;;;;;;;;;4887169;29;20020;-93
2022/02/13 18:22:59;;;;;;;36.90;22.88;;;;;;;;;;4886047;29;20033;-92
2022/02/13 18:25:25;;;;;;;36.33;19.63;;;;;;;;;;4886788;29;20545;-91
2022/02/13 18:27:53;;;;;;;39.28;23.02;;;;;;;;;;4887316;29;20031;-92
2022/02/13 18:30:21;;;;;;;43.72;26.63;;;;;;;;;;4885917;29;20055;-90
2022/02/13 18:32:47;;;;;;;58.58;33.75;;;;;;;;;;4886120;29;20028;-93
2022/02/13 18:35:14;;;;;;;72.25;38.03;;;;;;;;;;4886104;29;20020;-92
2022/02/13 18:37:40;;;;;;;119.75;61.33;;;;;;;;;;4885410;29;20419;-94
2022/02/13 18:40:07;;;;;;;122.00;66.20;;;;;;;;;;4886248;29;20035;-91
2022/02/13 18:42:33;;;;;;;103.07;54.58;;;;;;;;;;4884664;29;20037;-91
2022/02/13 18:44:59;;;;;;;142.57;74.70;;;;;;;;;;4884569;29;20492;-92
2022/02/13 18:47:26;;;;;;;109.25;56.92;;;;;;;;;;4885700;29;20032;-94
2022/02/13 18:49:52;;;;;;;79.38;44.08;;;;;;;;;;4885014;29;20511;-95
2022/02/13 18:52:18;;;;;;;73.38;40.63;;;;;;;;;;4885374;29;20036;-92
2022/02/13 18:54:44;;;;;;;39.50;24.33;;;;;;;;;;4883332;29;20029;-92
2022/02/13 18:57:11;;;;;;;84.63;46.42;;;;;;;;;;4881099;29;20037;-90
2022/02/13 18:59:37;;;;;;;98.47;51.45;;;;;;;;;;4884090;29;20032;-94
2022/02/13 19:02:06;;;;;;;77.32;43.42;;;;;;;;;;4884832;29;20032;-92
2022/02/13 19:04:33;;;;;;;64.60;36.88;;;;;;;;;;4884874;29;20128;-92
2022/02/13 19:06:59;;;;;;;109.78;55.75;;;;;;;;;;4918266;29;20072;-93
2022/02/13 19:09:26;;;;;;;54.35;31.65;;;;;;;;;;4902071;29;20039;-91
2022/02/13 19:11:52;;;;;;;70.03;36.97;;;;;;;;;;4914626;29;20087;-93
2022/02/13 19:14:18;;;;;;;48.80;25.85;;;;;;;;;;4920909;29;20070;-92
2022/02/13 19:16:44;;;;;;;34.40;20.20;;;;;;;;;;4906662;29;20066;-92
2022/02/13 19:19:10;;;;;;;63.75;33.97;;;154.20;1920.00;;;;;;4897386;29;20138;-94
2022/02/13 19:21:37;;;;;;;74.18;37.40;;;154.00;1945.60;;;;;;4890924;29;20092;-92
2022/02/13 19:24:04;;;;;;;79.15;40.50;;;153.80;2201.60;;;;;;4893767;29;20116;-92
2022/02/13 19:29:14;;;;;;;89.55;44.58;;;153.70;1996.80;;;;;;4906334;29;20075;-90
2022/02/13 19:31:41;;;;;;;129.45;62.38;;;153.60;1996.80;;;;;;4887934;29;20036;-88
2022/02/13 19:34:07;;;;;;;137.50;66.60;;;153.60;2022.40;;;;;;4889398;29;20059;-92
2022/02/13 20:01:38;;;;;;;93.65;44.78;;;;;;;;;;4949147;29;20043;-83
2022/02/13 20:48:59;;;;;;;46.70;25.30;;;;;;;;;;5208324;23;20050;-89
2022/02/13 20:51:28;;;;;;;43.13;24.70;;;;;;;;;;4920091;29;20040;-89
2022/02/13 20:53:55;;;;;;;63.00;34.10;;;;;;;;;;4936227;29;20036;-88
2022/02/13 20:56:22;;;;;;;58.42;33.97;;;;;;;;;;4920042;29;20035;-91
2022/02/13 21:04:22;;;;;;;44.97;22.58;;;;;;;;;;4819765;23;4663833;-87
2022/02/13 21:12:36;;;;;;;43.97;26.60;;;;;;;;;;4914852;29;20046;-91
2022/02/13 21:15:04;;;;;;;46.28;29.60;;;;;;;;;;4920368;29;20036;-92
2022/02/13 21:17:30;;;;;;;51.40;28.50;;;;;;;;;;4920251;29;20071;-92
2022/02/13 21:19:57;;;;;;;47.42;29.38;;;;;;;;;;4920461;29;20092;-92
2022/02/13 21:22:24;;;;;;;43.92;27.02;;;;;;;;;;4920436;29;20462;-92
2022/02/13 21:24:53;;;;;;;52.00;29.77;;;;;;;;;;4937473;29;20111;-92
2022/02/13 21:27:21;;;;;;;42.72;27.00;;;;;;;;;;4920495;29;20066;-91
2022/02/13 21:32:32;;;;;;;32.97;21.27;;;;;;;;;;4938046;29;20092;-91
2022/02/13 21:35:00;;;;;;;34.22;21.38;;;;;;;;;;4920780;29;20031;-91
2022/02/13 21:43:16;;;;;;;41.00;25.40;;;;;;;;;;4917626;29;20051;-90
2022/02/13 21:45:42;;;;;;;36.70;21.95;;;;;;;;;;4916815;29;20032;-90
2022/02/13 21:48:14;;;;;;;39.00;23.15;;;;;;;;;;4916883;29;20028;-91
2022/02/13 21:50:40;;;;;;;50.15;27.23;;;;;;;;;;4916885;29;20024;-91
2022/02/13 21:53:11;;;;;;;45.45;26.58;;;;;;;;;;4916765;29;20088;-92
2022/02/13 21:55:38;;;;;;;44.30;24.85;;;;;;;;;;4916756;29;20111;-92
2022/02/13 21:58:05;;;;;;;47.05;25.50;;;;;;;;;;4916788;29;20143;-91
2022/02/13 22:00:31;;;;;;;40.08;22.70;;;;;;;;;;4916648;29;20032;-93
2022/02/13 22:02:57;;;;;;;38.10;21.95;;;;;;;;;;4916763;29;20119;-91
2022/02/13 22:05:27;;;;;;;41.97;23.10;;;;;;;;;;4916634;29;20024;-91
2022/02/13 22:07:54;;;;;;;37.05;23.45;;;;;;;;;;4916739;29;20031;-91
2022/02/13 22:10:20;;;;;;;38.55;22.92;;;;;;;;;;4916616;29;20116;-91
2022/02/13 22:12:47;;;;;;;38.17;21.90;;;;;;;;;;4916657;29;20536;-91
2022/02/13 22:15:13;;;;;;;35.63;21.48;;;;;;;;;;4916678;29;20123;-92
2022/02/13 22:17:39;;;;;;;39.20;21.30;;;;;;;;;;4916424;29;20112;-91
2022/02/13 22:20:06;;;;;;;36.90;19.60;;;;;;;;;;4916706;29;20032;-90
2022/02/13 22:22:33;;;;;;;34.78;20.05;;;;;;;;;;4916638;29;20487;-92
2022/02/13 22:24:59;;;;;;;38.97;21.02;;;;;;;;;;4916802;29;20028;-91
2022/02/13 22:27:25;;;;;;;39.15;20.63;;;;;;;;;;4917646;29;20040;-90
2022/02/13 22:29:51;;;;;;;42.88;21.17;;;;;;;;;;4916635;29;20035;-89
2022/02/13 22:32:18;;;;;;;38.95;19.15;;;;;;;;;;4917349;29;20028;-90
2022/02/13 22:34:44;;;;;;;31.33;18.60;;;;;;;;;;4916590;29;20032;-91
2022/02/13 22:37:10;;;;;;;32.08;18.88;;;;;;;;;;4916533;29;20163;-91
2022/02/13 22:39:36;;;;;;;32.78;18.67;;;;;;;;;;4917183;29;20035;-91
2022/02/13 22:42:03;;;;;;;32.22;20.20;;;;;;;;;;4919712;29;20408;-91
2022/02/13 22:44:29;;;;;;;33.03;17.77;;;;;;;;;;4919899;29;20449;-91
2022/02/13 22:46:55;;;;;;;33.38;18.70;;;;;;;;;;4920748;29;20032;-91
2022/02/13 22:49:21;;;;;;;33.72;18.63;;;;;;;;;;4919826;29;20035;-90
2022/02/13 22:51:48;;;;;;;35.55;19.20;;;;;;;;;;4919638;29;20028;-91
2022/02/13 22:54:14;;;;;;;35.45;20.13;;;;;;;;;;4919630;29;20055;-91
2022/02/13 22:56:40;;;;;;;38.88;21.83;;;;;;;;;;4919686;29;20162;-92
2022/02/13 22:59:06;;;;;;;35.63;21.30;;;;;;;;;;4919843;29;20039;-91